sensor_id;sensor_type;location;lat;lon;timestamp;noise_LAeq;noise_LA_min;noise_LA_max;noise_LA01;noise_LA95
58303;Laerm;44109;52.398;7.024;2024-01-07T00:01:53;42.95;31.89;58.72;;
58303;Laerm;44109;52.398;7.024;2024-01-07T00:04:20;42.94;31.37;58.88;;
58303;Laerm;44109;52.398;7.024;2024-01-07T00:06:49;44.63;32.49;58.68;;
58303;Laerm;44109;52.398;7.024;2024-01-07T00:09:17;43.14;32.76;58.07;;
58303;Laerm;44109;52.398;7.024;2024-01-07T00:11:44;43.72;32.26;58.89;;
58303;Laerm;44109;52.398;7.024;2024-01-07T00:14:12;43.96;33.02;58.65;;
58303;Laerm;44109;52.398;7.024;2024-01-07T00:16:40;42.98;31.59;58.98;;
58303;Laerm;44109;52.398;7.024;2024-01-07T00:19:07;43.15;32.14;58.88;;
58303;Laerm;44109;52.398;7.024;2024-01-07T00:21:35;43.21;32.37;58.92;;
58303;Laerm;44109;52.398;7.024;2024-01-07T00:24:04;43.13;32.13;58.41;;
58303;Laerm;44109;52.398;7.024;2024-01-07T00:26:32;43.03;31.36;59.02;;
58303;Laerm;44109;52.398;7.024;2024-01-07T00:29:00;42.77;31.65;58.18;;
58303;Laerm;44109;52.398;7.024;2024-01-07T00:31:27;42.97;31.83;58.92;;
58303;Laerm;44109;52.398;7.024;2024-01-07T00:33:55;43.78;31.85;60.19;;
58303;Laerm;44109;52.398;7.024;2024-01-07T00:36:23;42.93;31.49;57.93;;
58303;Laerm;44109;52.398;7.024;2024-01-07T00:38:50;42.59;31.08;58.88;;
58303;Laerm;44109;52.398;7.024;2024-01-07T00:41:19;43.23;31.59;58.76;;
58303;Laerm;44109;52.398;7.024;2024-01-07T00:43:47;42.89;31.72;57.88;;
58303;Laerm;44109;52.398;7.024;2024-01-07T00:46:14;42.54;31.71;58.89;;
58303;Laerm;44109;52.398;7.024;2024-01-07T00:48:42;43.10;32.07;58.02;;
58303;Laerm;44109;52.398;7.024;2024-01-07T00:51:09;43.08;32.08;59.29;;
58303;Laerm;44109;52.398;7.024;2024-01-07T00:53:37;42.57;31.53;57.97;;
58303;Laerm;44109;52.398;7.024;2024-01-07T00:56:06;42.64;31.32;58.90;;
58303;Laerm;44109;52.398;7.024;2024-01-07T00:58:36;42.42;31.73;58.62;;
58303;Laerm;44109;52.398;7.024;2024-01-07T01:01:04;43.11;31.62;58.96;;
58303;Laerm;44109;52.398;7.024;2024-01-07T01:03:31;44.04;32.19;60.82;;
58303;Laerm;44109;52.398;7.024;2024-01-07T01:05:59;43.81;32.15;58.96;;
58303;Laerm;44109;52.398;7.024;2024-01-07T01:08:26;43.31;32.62;58.95;;
58303;Laerm;44109;52.398;7.024;2024-01-07T01:10:54;45.43;33.05;68.51;;
58303;Laerm;44109;52.398;7.024;2024-01-07T01:13:22;43.21;32.64;58.97;;
58303;Laerm;44109;52.398;7.024;2024-01-07T01:15:51;42.57;31.45;58.94;;
58303;Laerm;44109;52.398;7.024;2024-01-07T01:18:18;42.76;31.25;58.93;;
58303;Laerm;44109;52.398;7.024;2024-01-07T01:20:46;42.60;31.53;58.52;;
58303;Laerm;44109;52.398;7.024;2024-01-07T01:23:13;42.54;31.32;58.18;;
58303;Laerm;44109;52.398;7.024;2024-01-07T01:25:41;44.29;32.35;61.57;;
58303;Laerm;44109;52.398;7.024;2024-01-07T01:28:09;42.66;31.66;58.89;;
58303;Laerm;44109;52.398;7.024;2024-01-07T01:30:37;42.75;31.81;58.89;;
58303;Laerm;44109;52.398;7.024;2024-01-07T01:33:06;43.77;32.42;58.21;;
58303;Laerm;44109;52.398;7.024;2024-01-07T01:35:34;43.13;32.68;58.90;;
58303;Laerm;44109;52.398;7.024;2024-01-07T01:38:01;42.77;32.00;58.58;;
58303;Laerm;44109;52.398;7.024;2024-01-07T01:40:29;43.70;32.27;58.51;;
58303;Laerm;44109;52.398;7.024;2024-01-07T01:42:57;45.84;31.95;73.56;;
58303;Laerm;44109;52.398;7.024;2024-01-07T01:45:25;43.14;32.12;57.93;;
58303;Laerm;44109;52.398;7.024;2024-01-07T01:47:52;43.82;31.89;60.94;;
58303;Laerm;44109;52.398;7.024;2024-01-07T01:50:22;42.79;32.44;57.68;;
58303;Laerm;44109;52.398;7.024;2024-01-07T01:52:50;42.89;32.21;57.74;;
58303;Laerm;44109;52.398;7.024;2024-01-07T01:55:19;43.24;32.00;59.15;;
58303;Laerm;44109;52.398;7.024;2024-01-07T01:57:48;42.28;31.91;57.82;;
58303;Laerm;44109;52.398;7.024;2024-01-07T02:00:17;43.56;31.81;60.28;;
58303;Laerm;44109;52.398;7.024;2024-01-07T02:02:45;44.34;32.80;60.71;;
58303;Laerm;44109;52.398;7.024;2024-01-07T02:05:13;41.84;31.67;57.71;;
58303;Laerm;44109;52.398;7.024;2024-01-07T02:07:42;41.79;31.83;57.90;;
58303;Laerm;44109;52.398;7.024;2024-01-07T02:10:10;42.52;33.26;57.62;;
58303;Laerm;44109;52.398;7.024;2024-01-07T02:12:38;43.77;33.08;63.06;;
58303;Laerm;44109;52.398;7.024;2024-01-07T02:15:07;45.41;32.33;67.90;;
58303;Laerm;44109;52.398;7.024;2024-01-07T02:17:35;42.21;31.89;57.81;;
58303;Laerm;44109;52.398;7.024;2024-01-07T02:20:03;41.61;31.91;57.02;;
58303;Laerm;44109;52.398;7.024;2024-01-07T02:22:31;42.06;32.54;57.87;;
58303;Laerm;44109;52.398;7.024;2024-01-07T02:25:00;43.69;32.08;68.08;;
58303;Laerm;44109;52.398;7.024;2024-01-07T02:27:27;42.16;32.69;57.79;;
58303;Laerm;44109;52.398;7.024;2024-01-07T02:29:55;42.70;32.93;57.94;;
58303;Laerm;44109;52.398;7.024;2024-01-07T02:32:23;42.27;32.76;60.16;;
58303;Laerm;44109;52.398;7.024;2024-01-07T02:34:51;41.45;31.43;57.75;;
58303;Laerm;44109;52.398;7.024;2024-01-07T02:37:18;41.60;31.75;57.88;;
58303;Laerm;44109;52.398;7.024;2024-01-07T02:39:46;41.42;31.72;57.12;;
58303;Laerm;44109;52.398;7.024;2024-01-07T02:42:15;44.17;32.75;64.74;;
58303;Laerm;44109;52.398;7.024;2024-01-07T02:44:43;41.67;31.67;58.31;;
58303;Laerm;44109;52.398;7.024;2024-01-07T02:47:10;41.79;32.34;57.10;;
58303;Laerm;44109;52.398;7.024;2024-01-07T02:49:38;41.15;31.49;57.03;;
58303;Laerm;44109;52.398;7.024;2024-01-07T02:52:05;41.48;31.50;57.15;;
58303;Laerm;44109;52.398;7.024;2024-01-07T02:54:33;41.49;31.59;57.40;;
58303;Laerm;44109;52.398;7.024;2024-01-07T02:57:00;43.40;31.33;60.89;;
58303;Laerm;44109;52.398;7.024;2024-01-07T02:59:29;41.32;31.43;57.29;;
58303;Laerm;44109;52.398;7.024;2024-01-07T03:01:57;42.13;31.77;61.78;;
58303;Laerm;44109;52.398;7.024;2024-01-07T03:04:24;41.67;32.35;56.96;;
58303;Laerm;44109;52.398;7.024;2024-01-07T03:06:52;41.43;31.90;56.84;;
58303;Laerm;44109;52.398;7.024;2024-01-07T03:09:20;42.96;33.89;57.43;;
58303;Laerm;44109;52.398;7.024;2024-01-07T03:11:47;44.32;33.95;63.86;;
58303;Laerm;44109;52.398;7.024;2024-01-07T03:14:15;44.64;32.83;59.39;;
58303;Laerm;44109;52.398;7.024;2024-01-07T03:16:47;42.98;35.54;57.54;;
58303;Laerm;44109;52.398;7.024;2024-01-07T03:19:15;44.57;36.59;60.18;;
58303;Laerm;44109;52.398;7.024;2024-01-07T03:21:43;45.68;35.66;64.76;;
58303;Laerm;44109;52.398;7.024;2024-01-07T03:24:11;43.28;35.48;57.71;;
58303;Laerm;44109;52.398;7.024;2024-01-07T03:26:38;44.00;36.13;59.74;;
58303;Laerm;44109;52.398;7.024;2024-01-07T03:29:06;49.10;35.81;71.76;;
58303;Laerm;44109;52.398;7.024;2024-01-07T03:31:34;43.07;34.60;58.76;;
58303;Laerm;44109;52.398;7.024;2024-01-07T03:34:02;42.81;34.60;61.38;;
58303;Laerm;44109;52.398;7.024;2024-01-07T03:36:30;42.32;34.85;57.96;;
58303;Laerm;44109;52.398;7.024;2024-01-07T03:38:58;42.66;34.94;57.83;;
58303;Laerm;44109;52.398;7.024;2024-01-07T03:41:25;45.16;35.17;68.92;;
58303;Laerm;44109;52.398;7.024;2024-01-07T03:43:53;42.62;35.54;56.94;;
58303;Laerm;44109;52.398;7.024;2024-01-07T03:46:20;42.22;34.73;57.04;;
58303;Laerm;44109;52.398;7.024;2024-01-07T03:48:48;44.82;34.62;61.34;;
58303;Laerm;44109;52.398;7.024;2024-01-07T03:51:18;44.60;36.16;65.97;;
58303;Laerm;44109;52.398;7.024;2024-01-07T03:56:19;43.19;34.98;57.84;;
58303;Laerm;44109;52.398;7.024;2024-01-07T03:58:46;43.77;35.61;58.67;;
58303;Laerm;44109;52.398;7.024;2024-01-07T04:01:16;43.16;35.14;57.92;;
58303;Laerm;44109;52.398;7.024;2024-01-07T04:03:44;43.24;34.83;57.34;;
58303;Laerm;44109;52.398;7.024;2024-01-07T04:06:11;42.70;32.37;56.72;;
58303;Laerm;44109;52.398;7.024;2024-01-07T04:08:40;43.03;31.47;61.65;;
58303;Laerm;44109;52.398;7.024;2024-01-07T04:11:08;45.00;34.47;63.72;;
58303;Laerm;44109;52.398;7.024;2024-01-07T04:13:36;42.44;32.42;60.04;;
58303;Laerm;44109;52.398;7.024;2024-01-07T04:16:04;41.49;31.88;57.66;;
58303;Laerm;44109;52.398;7.024;2024-01-07T04:18:32;41.40;31.14;57.91;;
58303;Laerm;44109;52.398;7.024;2024-01-07T04:20:59;42.83;32.11;57.64;;
58303;Laerm;44109;52.398;7.024;2024-01-07T04:23:27;43.27;32.19;62.19;;
58303;Laerm;44109;52.398;7.024;2024-01-07T04:25:56;42.59;34.38;58.33;;
58303;Laerm;44109;52.398;7.024;2024-01-07T04:28:23;43.32;33.08;56.66;;
58303;Laerm;44109;52.398;7.024;2024-01-07T04:30:51;41.76;32.21;57.82;;
58303;Laerm;44109;52.398;7.024;2024-01-07T04:33:18;41.78;31.84;58.43;;
58303;Laerm;44109;52.398;7.024;2024-01-07T04:35:46;42.13;32.03;56.82;;
58303;Laerm;44109;52.398;7.024;2024-01-07T04:38:14;41.24;31.55;57.44;;
58303;Laerm;44109;52.398;7.024;2024-01-07T04:40:42;42.55;31.29;61.41;;
58303;Laerm;44109;52.398;7.024;2024-01-07T04:43:11;42.89;32.19;60.23;;
58303;Laerm;44109;52.398;7.024;2024-01-07T04:45:38;42.33;32.57;57.16;;
58303;Laerm;44109;52.398;7.024;2024-01-07T04:48:07;42.20;32.59;57.55;;
58303;Laerm;44109;52.398;7.024;2024-01-07T04:50:34;41.63;32.30;57.40;;
58303;Laerm;44109;52.398;7.024;2024-01-07T04:53:02;42.49;31.87;56.97;;
58303;Laerm;44109;52.398;7.024;2024-01-07T04:55:30;41.94;31.59;57.63;;
58303;Laerm;44109;52.398;7.024;2024-01-07T04:57:58;41.58;31.63;58.27;;
58303;Laerm;44109;52.398;7.024;2024-01-07T05:00:27;43.27;32.07;62.19;;
58303;Laerm;44109;52.398;7.024;2024-01-07T05:02:55;42.20;31.95;57.95;;
58303;Laerm;44109;52.398;7.024;2024-01-07T05:05:22;48.44;31.32;71.56;;
58303;Laerm;44109;52.398;7.024;2024-01-07T05:07:50;42.10;32.31;58.41;;
58303;Laerm;44109;52.398;7.024;2024-01-07T05:10:17;41.94;32.97;57.05;;
58303;Laerm;44109;52.398;7.024;2024-01-07T05:12:45;48.18;35.23;71.62;;
58303;Laerm;44109;52.398;7.024;2024-01-07T05:15:13;45.58;36.80;69.93;;
58303;Laerm;44109;52.398;7.024;2024-01-07T05:17:42;51.09;34.21;74.19;;
58303;Laerm;44109;52.398;7.024;2024-01-07T05:20:11;43.75;32.65;63.52;;
58303;Laerm;44109;52.398;7.024;2024-01-07T05:22:38;43.20;32.06;58.10;;
58303;Laerm;44109;52.398;7.024;2024-01-07T05:25:07;45.15;34.91;62.30;;
58303;Laerm;44109;52.398;7.024;2024-01-07T05:27:35;45.34;32.61;65.84;;
58303;Laerm;44109;52.398;7.024;2024-01-07T05:30:04;43.10;32.48;65.69;;
58303;Laerm;44109;52.398;7.024;2024-01-07T05:32:31;42.43;31.83;58.69;;
58303;Laerm;44109;52.398;7.024;2024-01-07T05:35:01;41.91;31.83;57.30;;
58303;Laerm;44109;52.398;7.024;2024-01-07T05:37:28;41.60;32.20;56.98;;
58303;Laerm;44109;52.398;7.024;2024-01-07T05:39:56;41.25;31.80;57.77;;
58303;Laerm;44109;52.398;7.024;2024-01-07T05:42:24;41.43;32.31;57.98;;
58303;Laerm;44109;52.398;7.024;2024-01-07T05:44:51;44.77;32.02;62.82;;
58303;Laerm;44109;52.398;7.024;2024-01-07T05:47:19;42.13;32.28;57.25;;
58303;Laerm;44109;52.398;7.024;2024-01-07T05:49:46;46.10;33.50;58.98;;
58303;Laerm;44109;52.398;7.024;2024-01-07T05:52:15;41.83;32.10;57.53;;
58303;Laerm;44109;52.398;7.024;2024-01-07T05:54:43;43.54;32.90;61.71;;
58303;Laerm;44109;52.398;7.024;2024-01-07T05:57:11;44.78;32.05;68.20;;
58303;Laerm;44109;52.398;7.024;2024-01-07T05:59:39;42.23;31.83;57.36;;
58303;Laerm;44109;52.398;7.024;2024-01-07T06:02:06;44.03;32.73;62.40;;
58303;Laerm;44109;52.398;7.024;2024-01-07T06:04:34;42.54;33.77;57.16;;
58303;Laerm;44109;52.398;7.024;2024-01-07T06:07:03;41.94;32.84;58.59;;
58303;Laerm;44109;52.398;7.024;2024-01-07T06:09:32;43.27;32.77;60.46;;
58303;Laerm;44109;52.398;7.024;2024-01-07T06:11:59;41.13;31.62;57.95;;
58303;Laerm;44109;52.398;7.024;2024-01-07T06:14:27;42.26;32.36;57.32;;
58303;Laerm;44109;52.398;7.024;2024-01-07T06:16:55;42.75;32.52;59.29;;
58303;Laerm;44109;52.398;7.024;2024-01-07T06:19:23;43.72;32.90;60.63;;
58303;Laerm;44109;52.398;7.024;2024-01-07T06:21:50;43.41;34.40;60.42;;
58303;Laerm;44109;52.398;7.024;2024-01-07T06:24:18;42.72;32.95;56.85;;
58303;Laerm;44109;52.398;7.024;2024-01-07T06:26:47;41.62;32.06;57.78;;
58303;Laerm;44109;52.398;7.024;2024-01-07T06:29:14;41.43;31.76;56.98;;
58303;Laerm;44109;52.398;7.024;2024-01-07T06:31:45;44.25;32.59;64.23;;
58303;Laerm;44109;52.398;7.024;2024-01-07T06:34:12;43.30;32.28;67.32;;
58303;Laerm;44109;52.398;7.024;2024-01-07T06:36:41;42.28;32.53;60.99;;
58303;Laerm;44109;52.398;7.024;2024-01-07T06:39:08;44.07;32.47;66.49;;
58303;Laerm;44109;52.398;7.024;2024-01-07T06:41:37;42.47;33.20;57.47;;
58303;Laerm;44109;52.398;7.024;2024-01-07T06:44:06;42.29;32.86;58.47;;
58303;Laerm;44109;52.398;7.024;2024-01-07T06:46:33;56.91;36.26;78.85;;
58303;Laerm;44109;52.398;7.024;2024-01-07T06:49:02;50.83;35.74;70.67;;
58303;Laerm;44109;52.398;7.024;2024-01-07T06:51:30;44.13;33.20;64.48;;
58303;Laerm;44109;52.398;7.024;2024-01-07T06:53:57;42.91;34.22;57.26;;
58303;Laerm;44109;52.398;7.024;2024-01-07T06:56:25;42.93;32.73;64.92;;
58303;Laerm;44109;52.398;7.024;2024-01-07T06:58:53;47.59;35.28;68.72;;
58303;Laerm;44109;52.398;7.024;2024-01-07T07:01:22;46.08;33.82;61.89;;
58303;Laerm;44109;52.398;7.024;2024-01-07T07:03:50;51.70;37.81;72.63;;
58303;Laerm;44109;52.398;7.024;2024-01-07T07:06:18;47.67;37.58;66.81;;
58303;Laerm;44109;52.398;7.024;2024-01-07T07:08:45;49.27;34.75;67.44;;
58303;Laerm;44109;52.398;7.024;2024-01-07T07:11:13;48.39;37.77;68.09;;
58303;Laerm;44109;52.398;7.024;2024-01-07T07:13:41;44.35;34.72;61.98;;
58303;Laerm;44109;52.398;7.024;2024-01-07T07:16:08;44.20;34.96;60.38;;
58303;Laerm;44109;52.398;7.024;2024-01-07T07:18:37;45.15;36.67;60.91;;
58303;Laerm;44109;52.398;7.024;2024-01-07T07:21:05;46.96;35.24;65.46;;
58303;Laerm;44109;52.398;7.024;2024-01-07T07:23:33;49.28;35.55;67.19;;
58303;Laerm;44109;52.398;7.024;2024-01-07T07:26:00;50.57;35.92;70.18;;
58303;Laerm;44109;52.398;7.024;2024-01-07T07:28:28;48.26;35.88;70.21;;
58303;Laerm;44109;52.398;7.024;2024-01-07T07:30:56;49.38;36.02;70.56;;
58303;Laerm;44109;52.398;7.024;2024-01-07T07:33:23;49.52;37.37;70.25;;
58303;Laerm;44109;52.398;7.024;2024-01-07T07:35:52;49.48;36.30;70.75;;
58303;Laerm;44109;52.398;7.024;2024-01-07T07:38:20;43.50;33.60;57.02;;
58303;Laerm;44109;52.398;7.024;2024-01-07T07:40:47;47.60;36.47;67.72;;
58303;Laerm;44109;52.398;7.024;2024-01-07T07:43:19;46.02;37.65;64.90;;
58303;Laerm;44109;52.398;7.024;2024-01-07T07:45:47;50.86;36.92;70.01;;
58303;Laerm;44109;52.398;7.024;2024-01-07T07:48:14;50.16;35.93;72.61;;
58303;Laerm;44109;52.398;7.024;2024-01-07T07:50:43;46.46;38.01;60.20;;
58303;Laerm;44109;52.398;7.024;2024-01-07T07:53:11;51.79;36.64;73.48;;
58303;Laerm;44109;52.398;7.024;2024-01-07T07:55:39;47.67;38.46;69.80;;
58303;Laerm;44109;52.398;7.024;2024-01-07T07:58:07;46.65;39.62;67.06;;
58303;Laerm;44109;52.398;7.024;2024-01-07T08:00:34;46.21;36.87;67.70;;
58303;Laerm;44109;52.398;7.024;2024-01-07T08:03:05;47.57;38.74;68.51;;
58303;Laerm;44109;52.398;7.024;2024-01-07T08:05:32;50.36;38.17;68.54;;
58303;Laerm;44109;52.398;7.024;2024-01-07T08:08:00;49.02;37.87;70.30;;
58303;Laerm;44109;52.398;7.024;2024-01-07T08:10:29;48.18;39.90;66.86;;
58303;Laerm;44109;52.398;7.024;2024-01-07T08:12:58;49.20;39.97;69.69;;
58303;Laerm;44109;52.398;7.024;2024-01-07T08:15:25;52.30;39.83;71.41;;
58303;Laerm;44109;52.398;7.024;2024-01-07T08:17:53;50.77;39.74;67.83;;
58303;Laerm;44109;52.398;7.024;2024-01-07T08:20:21;51.94;42.23;65.20;;
58303;Laerm;44109;52.398;7.024;2024-01-07T08:22:48;52.17;41.60;73.39;;
58303;Laerm;44109;52.398;7.024;2024-01-07T08:25:16;50.29;39.45;68.23;;
58303;Laerm;44109;52.398;7.024;2024-01-07T08:27:45;48.74;41.22;66.58;;
58303;Laerm;44109;52.398;7.024;2024-01-07T08:30:13;50.57;39.67;72.25;;
58303;Laerm;44109;52.398;7.024;2024-01-07T08:32:42;50.57;41.15;68.31;;
58303;Laerm;44109;52.398;7.024;2024-01-07T08:35:10;47.53;38.96;67.31;;
58303;Laerm;44109;52.398;7.024;2024-01-07T08:37:37;51.23;38.95;70.12;;
58303;Laerm;44109;52.398;7.024;2024-01-07T08:40:07;53.68;38.46;74.63;;
58303;Laerm;44109;52.398;7.024;2024-01-07T08:42:35;52.88;41.83;74.22;;
58303;Laerm;44109;52.398;7.024;2024-01-07T08:45:06;46.52;37.91;62.49;;
58303;Laerm;44109;52.398;7.024;2024-01-07T08:47:35;50.27;40.57;74.91;;
58303;Laerm;44109;52.398;7.024;2024-01-07T08:50:04;53.60;39.31;74.07;;
58303;Laerm;44109;52.398;7.024;2024-01-07T08:52:31;47.00;38.03;66.82;;
58303;Laerm;44109;52.398;7.024;2024-01-07T08:55:01;52.86;39.79;71.37;;
58303;Laerm;44109;52.398;7.024;2024-01-07T08:57:32;51.64;41.56;69.36;;
58303;Laerm;44109;52.398;7.024;2024-01-07T08:59:59;51.71;42.73;70.34;;
58303;Laerm;44109;52.398;7.024;2024-01-07T09:02:28;49.04;40.09;64.68;;
58303;Laerm;44109;52.398;7.024;2024-01-07T09:04:56;52.60;43.07;72.91;;
58303;Laerm;44109;52.398;7.024;2024-01-07T09:07:24;47.68;39.87;67.90;;
58303;Laerm;44109;52.398;7.024;2024-01-07T09:09:52;47.73;40.34;59.78;;
58303;Laerm;44109;52.398;7.024;2024-01-07T09:12:21;52.50;42.24;78.10;;
58303;Laerm;44109;52.398;7.024;2024-01-07T09:14:49;49.73;39.38;71.16;;
58303;Laerm;44109;52.398;7.024;2024-01-07T09:17:17;52.36;40.44;70.47;;
58303;Laerm;44109;52.398;7.024;2024-01-07T09:19:47;50.27;40.76;67.58;;
58303;Laerm;44109;52.398;7.024;2024-01-07T09:22:15;54.72;41.00;73.77;;
58303;Laerm;44109;52.398;7.024;2024-01-07T09:24:42;47.63;38.48;70.33;;
58303;Laerm;44109;52.398;7.024;2024-01-07T09:27:10;52.61;39.50;72.68;;
58303;Laerm;44109;52.398;7.024;2024-01-07T09:29:38;49.10;41.64;67.38;;
58303;Laerm;44109;52.398;7.024;2024-01-07T09:32:06;47.32;39.73;63.06;;
58303;Laerm;44109;52.398;7.024;2024-01-07T09:34:34;58.15;42.08;76.62;;
58303;Laerm;44109;52.398;7.024;2024-01-07T09:37:03;54.44;40.98;73.34;;
58303;Laerm;44109;52.398;7.024;2024-01-07T09:39:30;53.92;42.43;71.62;;
58303;Laerm;44109;52.398;7.024;2024-01-07T09:41:58;51.09;42.11;70.16;;
58303;Laerm;44109;52.398;7.024;2024-01-07T09:44:29;54.29;42.59;74.62;;
58303;Laerm;44109;52.398;7.024;2024-01-07T09:46:58;52.55;40.85;69.33;;
58303;Laerm;44109;52.398;7.024;2024-01-07T09:49:26;51.45;40.16;71.46;;
58303;Laerm;44109;52.398;7.024;2024-01-07T09:52:00;50.12;40.21;68.15;;
58303;Laerm;44109;52.398;7.024;2024-01-07T09:54:30;53.37;41.41;69.77;;
58303;Laerm;44109;52.398;7.024;2024-01-07T09:57:02;55.01;42.59;73.17;;
58303;Laerm;44109;52.398;7.024;2024-01-07T09:59:30;50.73;40.77;73.67;;
58303;Laerm;44109;52.398;7.024;2024-01-07T10:01:58;50.08;38.58;66.04;;
58303;Laerm;44109;52.398;7.024;2024-01-07T10:04:27;53.22;43.97;71.06;;
58303;Laerm;44109;52.398;7.024;2024-01-07T10:06:55;48.86;41.50;64.91;;
58303;Laerm;44109;52.398;7.024;2024-01-07T10:09:23;50.14;41.65;66.34;;
58303;Laerm;44109;52.398;7.024;2024-01-07T10:11:54;51.84;41.88;69.95;;
58303;Laerm;44109;52.398;7.024;2024-01-07T10:14:21;61.19;40.16;91.76;;
58303;Laerm;44109;52.398;7.024;2024-01-07T10:16:51;53.87;42.09;78.87;;
58303;Laerm;44109;52.398;7.024;2024-01-07T10:19:20;55.55;43.26;73.16;;
58303;Laerm;44109;52.398;7.024;2024-01-07T10:21:59;53.41;42.62;71.51;;
58303;Laerm;44109;52.398;7.024;2024-01-07T10:24:35;55.58;42.97;72.57;;
58303;Laerm;44109;52.398;7.024;2024-01-07T10:27:08;49.65;42.01;66.98;;
58303;Laerm;44109;52.398;7.024;2024-01-07T10:29:35;51.41;42.20;71.57;;
58303;Laerm;44109;52.398;7.024;2024-01-07T10:32:05;53.07;44.14;73.99;;
58303;Laerm;44109;52.398;7.024;2024-01-07T10:34:34;49.99;41.24;67.87;;
58303;Laerm;44109;52.398;7.024;2024-01-07T10:37:03;49.06;40.95;63.10;;
58303;Laerm;44109;52.398;7.024;2024-01-07T10:39:32;50.44;41.93;71.51;;
58303;Laerm;44109;52.398;7.024;2024-01-07T10:42:00;46.97;40.18;65.63;;
58303;Laerm;44109;52.398;7.024;2024-01-07T10:44:31;48.86;40.78;68.46;;
58303;Laerm;44109;52.398;7.024;2024-01-07T10:47:00;47.04;40.28;61.08;;
58303;Laerm;44109;52.398;7.024;2024-01-07T10:49:28;53.37;43.22;73.34;;
58303;Laerm;44109;52.398;7.024;2024-01-07T10:52:03;50.55;42.70;70.29;;
58303;Laerm;44109;52.398;7.024;2024-01-07T10:54:33;51.00;40.81;71.12;;
58303;Laerm;44109;52.398;7.024;2024-01-07T10:57:11;51.84;40.28;74.51;;
58303;Laerm;44109;52.398;7.024;2024-01-07T10:59:43;50.82;39.87;68.23;;
58303;Laerm;44109;52.398;7.024;2024-01-07T11:02:13;50.36;41.62;66.98;;
58303;Laerm;44109;52.398;7.024;2024-01-07T11:04:53;46.09;39.57;57.79;;
58303;Laerm;44109;52.398;7.024;2024-01-07T11:07:29;46.82;40.49;59.04;;
58303;Laerm;44109;52.398;7.024;2024-01-07T11:10:11;46.77;41.21;58.80;;
58303;Laerm;44109;52.398;7.024;2024-01-07T11:12:41;48.99;38.45;72.51;;
58303;Laerm;44109;52.398;7.024;2024-01-07T11:15:10;46.37;40.14;58.66;;
58303;Laerm;44109;52.398;7.024;2024-01-07T11:17:41;48.04;40.25;68.63;;
58303;Laerm;44109;52.398;7.024;2024-01-07T11:20:20;48.91;42.18;68.44;;
58303;Laerm;44109;52.398;7.024;2024-01-07T11:22:48;46.62;40.85;59.13;;
58303;Laerm;44109;52.398;7.024;2024-01-07T11:25:30;48.80;38.73;73.90;;
58303;Laerm;44109;52.398;7.024;2024-01-07T11:28:00;49.62;40.07;72.92;;
58303;Laerm;44109;52.398;7.024;2024-01-07T11:30:30;48.83;41.42;66.93;;
58303;Laerm;44109;52.398;7.024;2024-01-07T11:33:05;47.32;37.78;63.20;;
58303;Laerm;44109;52.398;7.024;2024-01-07T11:35:55;50.53;40.32;67.26;;
58303;Laerm;44109;52.398;7.024;2024-01-07T11:38:24;48.04;41.69;60.43;;
58303;Laerm;44109;52.398;7.024;2024-01-07T11:40:52;51.38;41.50;76.14;;
58303;Laerm;44109;52.398;7.024;2024-01-07T11:43:19;49.29;41.18;68.56;;
58303;Laerm;44109;52.398;7.024;2024-01-07T11:45:50;51.08;40.91;68.07;;
58303;Laerm;44109;52.398;7.024;2024-01-07T11:48:18;50.64;44.02;70.98;;
58303;Laerm;44109;52.398;7.024;2024-01-07T11:50:46;52.52;39.85;70.84;;
58303;Laerm;44109;52.398;7.024;2024-01-07T11:53:14;47.45;41.67;58.16;;
58303;Laerm;44109;52.398;7.024;2024-01-07T11:55:42;51.79;43.60;66.20;;
58303;Laerm;44109;52.398;7.024;2024-01-07T11:58:10;48.28;42.46;60.28;;
58303;Laerm;44109;52.398;7.024;2024-01-07T12:00:37;48.01;42.07;66.04;;
58303;Laerm;44109;52.398;7.024;2024-01-07T12:03:06;47.49;40.85;64.02;;
58303;Laerm;44109;52.398;7.024;2024-01-07T12:05:34;46.88;40.57;58.12;;
58303;Laerm;44109;52.398;7.024;2024-01-07T12:08:01;47.44;40.31;64.11;;
58303;Laerm;44109;52.398;7.024;2024-01-07T12:10:30;46.57;39.51;67.47;;
58303;Laerm;44109;52.398;7.024;2024-01-07T12:12:58;46.74;38.94;61.42;;
58303;Laerm;44109;52.398;7.024;2024-01-07T12:15:26;48.61;42.82;62.98;;
58303;Laerm;44109;52.398;7.024;2024-01-07T12:17:56;48.48;42.22;66.32;;
58303;Laerm;44109;52.398;7.024;2024-01-07T12:20:27;48.11;41.43;63.05;;
58303;Laerm;44109;52.398;7.024;2024-01-07T12:23:05;48.09;40.25;67.65;;
58303;Laerm;44109;52.398;7.024;2024-01-07T12:25:33;47.47;41.36;59.79;;
58303;Laerm;44109;52.398;7.024;2024-01-07T12:28:00;52.79;39.20;79.02;;
58303;Laerm;44109;52.398;7.024;2024-01-07T12:30:28;47.41;41.15;61.48;;
58303;Laerm;44109;52.398;7.024;2024-01-07T12:32:57;49.96;41.51;69.05;;
58303;Laerm;44109;52.398;7.024;2024-01-07T12:35:28;46.12;39.57;57.79;;
58303;Laerm;44109;52.398;7.024;2024-01-07T12:37:56;48.95;42.76;66.62;;
58303;Laerm;44109;52.398;7.024;2024-01-07T12:40:24;47.64;42.55;58.83;;
58303;Laerm;44109;52.398;7.024;2024-01-07T12:42:53;48.11;41.09;64.67;;
58303;Laerm;44109;52.398;7.024;2024-01-07T12:45:20;48.19;41.37;66.01;;
58303;Laerm;44109;52.398;7.024;2024-01-07T12:47:48;47.05;40.51;57.78;;
58303;Laerm;44109;52.398;7.024;2024-01-07T12:50:16;48.83;40.52;66.93;;
58303;Laerm;44109;52.398;7.024;2024-01-07T12:52:45;49.04;41.38;65.95;;
58303;Laerm;44109;52.398;7.024;2024-01-07T12:55:12;48.10;40.30;63.69;;
58303;Laerm;44109;52.398;7.024;2024-01-07T12:57:40;48.20;42.08;63.95;;
58303;Laerm;44109;52.398;7.024;2024-01-07T13:00:08;50.81;43.57;70.19;;
58303;Laerm;44109;52.398;7.024;2024-01-07T13:02:37;49.40;41.68;65.27;;
58303;Laerm;44109;52.398;7.024;2024-01-07T13:05:07;47.24;40.42;60.25;;
58303;Laerm;44109;52.398;7.024;2024-01-07T13:07:35;48.63;41.78;68.23;;
58303;Laerm;44109;52.398;7.024;2024-01-07T13:10:05;51.51;43.91;73.61;;
58303;Laerm;44109;52.398;7.024;2024-01-07T13:12:33;49.69;42.01;62.18;;
58303;Laerm;44109;52.398;7.024;2024-01-07T13:15:01;47.31;40.50;65.49;;
58303;Laerm;44109;52.398;7.024;2024-01-07T13:17:29;46.86;40.47;57.68;;
58303;Laerm;44109;52.398;7.024;2024-01-07T13:19:59;47.66;41.76;58.78;;
58303;Laerm;44109;52.398;7.024;2024-01-07T13:22:26;47.25;41.53;61.76;;
58303;Laerm;44109;52.398;7.024;2024-01-07T13:24:54;52.43;42.10;76.11;;
58303;Laerm;44109;52.398;7.024;2024-01-07T13:27:24;51.46;43.48;68.77;;
58303;Laerm;44109;52.398;7.024;2024-01-07T13:29:52;47.14;41.66;59.48;;
58303;Laerm;44109;52.398;7.024;2024-01-07T13:32:19;50.66;43.14;68.87;;
58303;Laerm;44109;52.398;7.024;2024-01-07T13:34:48;49.88;41.05;70.58;;
58303;Laerm;44109;52.398;7.024;2024-01-07T13:37:15;50.05;41.88;72.63;;
58303;Laerm;44109;52.398;7.024;2024-01-07T13:39:43;49.78;42.89;70.47;;
58303;Laerm;44109;52.398;7.024;2024-01-07T13:42:10;47.21;40.26;58.31;;
58303;Laerm;44109;52.398;7.024;2024-01-07T13:44:40;49.35;40.96;74.04;;
58303;Laerm;44109;52.398;7.024;2024-01-07T13:47:12;50.82;43.21;71.48;;
58303;Laerm;44109;52.398;7.024;2024-01-07T13:49:40;48.82;43.33;63.78;;
58303;Laerm;44109;52.398;7.024;2024-01-07T13:52:08;48.28;42.17;63.69;;
58303;Laerm;44109;52.398;7.024;2024-01-07T13:54:36;46.46;40.41;57.72;;